MET'MAP v2.0
soon released !

Expected late october,
this new version will be
more efficient, smarter,
and hosted on a brand new
server x3 powerfull...
...and still free !


Not compatible ?
Try the mobile version !

LOG IN : | Subscribe | Disclaimer | Who is Orbifly ? |
ICAO code :

TAF - EDFE Frankfurt-Egelsbach Airport - 06 Dec 2019 22:11 UTC
Data Sources :     NOAA   


- Airport Elevation : 384 ft
- IATA code : QEF
- No reported NOTAMs.


EDFE - Frankfurt-Egelsbach Airport

Latest METAR recorded : 2015/08/11 07:50 EDFE 110750Z 35005KT CAVOK 23/15 Q1017
TAF N/A

Source NOAA


MET'MAP, your aeronautical weather chart ! - Copyright ORBIFLY December 2007

Programming & Development : Alexandra Zaïnal
Co-Developer : Marc-Olivier Méhu
Technical & hardware support : Manuel Goepfert
Concept & Financing : Baudouin d'Aumeries